This is the latest recevied weather packets stored in our database for station/object SP6KBU-12. If no packets are shown the sender has not sent any weather packets the latest 10 day(s).
| Time | Temp. | Humidity | Pressure | Rain* | Wind** | Luminosity | Snow |
|---|---|---|---|---|---|---|---|
| 1787747297 | 16.11° C | 71% | 1024 hPa | - | - | - | - |
| 1787746397 | 16.11° C | 70% | 1024.1 hPa | - | - | - | - |
| 1787745551 | 16.67° C | 69% | 1024 hPa | - | - | - | - |
| 1787745497 | 16.67° C | 69% | 1024 hPa | - | - | - | - |
| 1787744597 | 16.67° C | 68% | 1024.1 hPa | - | - | - | - |
| 1787743739 | 16.67° C | 68% | 1024.2 hPa | - | - | - | - |
| 1787743697 | 16.67° C | 68% | 1024.2 hPa | - | - | - | - |
| 1787742797 | 16.67° C | 66% | 1024.1 hPa | - | - | - | - |
| 1787741897 | 17.22° C | 63% | 1024.1 hPa | - | - | - | - |
| 1787740997 | 17.78° C | 59% | 1024 hPa | - | - | - | - |
| 1787740097 | 17.78° C | 58% | 1023.9 hPa | - | - | - | - |
| 1787739197 | 18.33° C | 55% | 1023.8 hPa | - | - | - | - |
| 1787738296 | 18.89° C | 56% | 1023.9 hPa | - | - | - | - |
| 1787737396 | 18.89° C | 58% | 1023.8 hPa | - | - | - | - |
| 1787736576 | 19.44° C | 55% | 1023.8 hPa | - | - | - | - |
| 1787736495 | 19.44° C | 55% | 1023.8 hPa | - | - | - | - |
| 1787735595 | 20° C | 53% | 1023.9 hPa | - | - | - | - |
| 1787734695 | 19.44° C | 56% | 1023.9 hPa | - | - | - | - |
| 1787733795 | 18.89° C | 58% | 1023.8 hPa | - | - | - | - |
| 1787732895 | 17.78° C | 61% | 1023.7 hPa | - | - | - | - |
| 1787731994 | 17.78° C | 65% | 1023.7 hPa | - | - | - | - |
| 1787731094 | 16.67° C | 65% | 1023.5 hPa | - | - | - | - |
| 1787730194 | 17.78° C | 62% | 1023.3 hPa | - | - | - | - |
| 1787729293 | 17.78° C | 69% | 1023.2 hPa | - | - | - | - |
| 1787728392 | 15.56° C | 73% | 1023.1 hPa | - | - | - | - |
* Rain since midnight (hover to see other rain measurements)
** Current wind speed in m/s (hover to see current wind gust speed)